sensor_id;sensor_type;location;lat;lon;timestamp;pressure;altitude;pressure_sealevel;temperature;humidity
36354;BME280;22383;51.114;13.666;2023-06-14T00:00:18;68466.91;;;11.53;100.00
36354;BME280;22383;51.114;13.666;2023-06-14T00:02:46;68456.69;;;11.44;100.00
36354;BME280;22383;51.114;13.666;2023-06-14T00:05:14;68451.59;;;11.40;100.00
36354;BME280;22383;51.114;13.666;2023-06-14T00:07:42;68447.44;;;11.33;100.00
36354;BME280;22383;51.114;13.666;2023-06-14T00:10:15;68438.34;;;11.25;100.00
36354;BME280;22383;51.114;13.666;2023-06-14T00:12:43;68433.81;;;11.21;100.00
36354;BME280;22383;51.114;13.666;2023-06-14T00:15:10;68421.53;;;11.12;100.00
36354;BME280;22383;51.114;13.666;2023-06-14T00:17:39;68403.56;;;10.98;100.00
36354;BME280;22383;51.114;13.666;2023-06-14T00:20:14;68404.13;;;10.99;100.00
36354;BME280;22383;51.114;13.666;2023-06-14T00:22:42;68410.00;;;11.00;100.00
36354;BME280;22383;51.114;13.666;2023-06-14T00:25:08;68396.00;;;10.89;100.00
36354;BME280;22383;51.114;13.666;2023-06-14T00:27:54;68399.97;;;10.93;100.00
36354;BME280;22383;51.114;13.666;2023-06-14T00:30:22;68398.81;;;10.92;100.00
36354;BME280;22383;51.114;13.666;2023-06-14T00:32:49;68389.38;;;10.86;100.00
36354;BME280;22383;51.114;13.666;2023-06-14T00:35:17;68388.44;;;10.80;100.00
36354;BME280;22383;51.114;13.666;2023-06-14T00:37:44;68382.97;;;10.77;100.00
36354;BME280;22383;51.114;13.666;2023-06-14T00:40:11;68378.44;;;10.73;100.00
36354;BME280;22383;51.114;13.666;2023-06-14T00:42:38;68384.66;;;10.79;100.00
36354;BME280;22383;51.114;13.666;2023-06-14T00:45:05;68376.91;;;10.74;100.00
36354;BME280;22383;51.114;13.666;2023-06-14T00:47:36;68384.09;;;10.78;100.00
36354;BME280;22383;51.114;13.666;2023-06-14T00:50:09;68371.44;;;10.72;100.00
36354;BME280;22383;51.114;13.666;2023-06-14T00:52:38;68365.38;;;10.62;100.00
36354;BME280;22383;51.114;13.666;2023-06-14T00:55:05;68360.28;;;10.57;100.00
36354;BME280;22383;51.114;13.666;2023-06-14T00:57:33;68351.22;;;10.49;100.00
36354;BME280;22383;51.114;13.666;2023-06-14T01:00:05;68348.56;;;10.49;100.00
36354;BME280;22383;51.114;13.666;2023-06-14T01:02:36;68351.00;;;10.46;100.00
36354;BME280;22383;51.114;13.666;2023-06-14T01:05:04;68353.09;;;10.53;100.00
36354;BME280;22383;51.114;13.666;2023-06-14T01:07:46;68350.28;;;10.50;100.00
36354;BME280;22383;51.114;13.666;2023-06-14T01:13:01;68336.47;;;10.35;100.00
36354;BME280;22383;51.114;13.666;2023-06-14T01:15:30;68320.75;;;10.23;100.00
36354;BME280;22383;51.114;13.666;2023-06-14T01:17:57;68324.94;;;10.22;100.00
36354;BME280;22383;51.114;13.666;2023-06-14T01:20:31;68317.16;;;10.18;100.00
36354;BME280;22383;51.114;13.666;2023-06-14T01:22:59;68318.69;;;10.17;100.00
36354;BME280;22383;51.114;13.666;2023-06-14T01:25:26;68314.91;;;10.16;100.00
36354;BME280;22383;51.114;13.666;2023-06-14T01:30:25;68311.50;;;10.13;100.00
36354;BME280;22383;51.114;13.666;2023-06-14T01:32:56;68316.63;;;10.17;100.00
36354;BME280;22383;51.114;13.666;2023-06-14T01:35:31;68322.84;;;10.23;100.00
36354;BME280;22383;51.114;13.666;2023-06-14T01:37:58;68322.66;;;10.20;100.00
36354;BME280;22383;51.114;13.666;2023-06-14T01:40:29;68326.63;;;10.24;100.00
36354;BME280;22383;51.114;13.666;2023-06-14T01:42:58;68316.06;;;10.17;100.00
36354;BME280;22383;51.114;13.666;2023-06-14T01:45:25;68312.44;;;10.11;100.00
36354;BME280;22383;51.114;13.666;2023-06-14T01:47:56;68304.88;;;10.02;100.00
36354;BME280;22383;51.114;13.666;2023-06-14T01:50:23;68297.53;;;10.02;100.00
36354;BME280;22383;51.114;13.666;2023-06-14T01:52:54;68303.56;;;10.06;100.00
36354;BME280;22383;51.114;13.666;2023-06-14T01:55:21;68300.38;;;10.05;100.00
36354;BME280;22383;51.114;13.666;2023-06-14T01:57:49;68298.09;;;10.03;100.00
36354;BME280;22383;51.114;13.666;2023-06-14T02:00:20;68294.13;;;9.99;100.00
36354;BME280;22383;51.114;13.666;2023-06-14T02:02:51;68303.94;;;10.03;100.00
36354;BME280;22383;51.114;13.666;2023-06-14T02:05:18;68298.09;;;10.03;100.00
36354;BME280;22383;51.114;13.666;2023-06-14T02:07:48;68304.13;;;10.06;100.00
36354;BME280;22383;51.114;13.666;2023-06-14T02:10:17;68304.13;;;10.06;100.00
36354;BME280;22383;51.114;13.666;2023-06-14T02:12:44;68304.50;;;10.04;100.00
36354;BME280;22383;51.114;13.666;2023-06-14T02:15:18;68280.72;;;9.82;100.00
36354;BME280;22383;51.114;13.666;2023-06-14T02:17:46;68268.44;;;9.74;100.00
36354;BME280;22383;51.114;13.666;2023-06-14T02:20:24;68248.25;;;9.58;100.00
36354;BME280;22383;51.114;13.666;2023-06-14T02:22:57;68242.19;;;9.48;100.00
36354;BME280;22383;51.114;13.666;2023-06-14T02:25:31;68237.09;;;9.43;100.00
36354;BME280;22383;51.114;13.666;2023-06-14T02:28:03;68228.78;;;9.38;100.00
36354;BME280;22383;51.114;13.666;2023-06-14T02:30:34;68223.31;;;9.35;100.00
36354;BME280;22383;51.114;13.666;2023-06-14T02:33:07;68237.28;;;9.45;100.00
36354;BME280;22383;51.114;13.666;2023-06-14T02:36:01;68235.59;;;9.44;100.00
36354;BME280;22383;51.114;13.666;2023-06-14T02:38:38;68238.78;;;9.44;100.00
36354;BME280;22383;51.114;13.666;2023-06-14T02:41:14;68239.94;;;9.45;100.00
36354;BME280;22383;51.114;13.666;2023-06-14T02:43:42;68190.13;;;9.43;100.00
36354;BME280;22383;51.114;13.666;2023-06-14T02:46:29;68215.75;;;9.26;100.00
36354;BME280;22383;51.114;13.666;2023-06-14T02:49:09;68206.50;;;9.15;100.00
36354;BME280;22383;51.114;13.666;2023-06-14T02:51:42;68195.00;;;9.09;100.00
36354;BME280;22383;51.114;13.666;2023-06-14T02:54:20;68195.38;;;9.07;100.00
36354;BME280;22383;51.114;13.666;2023-06-14T02:57:22;68211.03;;;9.19;100.00
36354;BME280;22383;51.114;13.666;2023-06-14T02:59:53;68216.50;;;9.22;100.00
36354;BME280;22383;51.114;13.666;2023-06-14T03:02:21;68165.22;;;9.21;100.00
36354;BME280;22383;51.114;13.666;2023-06-14T03:04:48;68216.88;;;9.27;100.00
36354;BME280;22383;51.114;13.666;2023-06-14T03:10:30;68202.16;;;9.14;100.00
36354;BME280;22383;51.114;13.666;2023-06-14T03:13:18;68195.94;;;9.08;100.00
36354;BME280;22383;51.114;13.666;2023-06-14T03:16:09;68191.41;;;9.04;100.00
36354;BME280;22383;51.114;13.666;2023-06-14T03:18:39;68194.03;;;9.04;100.00
36354;BME280;22383;51.114;13.666;2023-06-14T03:21:15;68180.66;;;8.94;100.00
36354;BME280;22383;51.114;13.666;2023-06-14T03:34:59;68203.28;;;9.15;100.00
36354;BME280;22383;51.114;13.666;2023-06-14T03:48:39;68211.81;;;9.22;100.00
36354;BME280;22383;51.114;13.666;2023-06-14T03:51:18;68202.34;;;9.16;100.00
36354;BME280;22383;51.114;13.666;2023-06-14T03:53:45;68190.47;;;9.05;100.00
36354;BME280;22383;51.114;13.666;2023-06-14T03:56:33;68191.97;;;9.04;100.00
36354;BME280;22383;51.114;13.666;2023-06-14T03:59:06;68194.03;;;9.04;100.00
36354;BME280;22383;51.114;13.666;2023-06-14T04:01:33;68192.16;;;9.07;100.00
36354;BME280;22383;51.114;13.666;2023-06-14T04:04:00;68207.84;;;9.19;100.00
36354;BME280;22383;51.114;13.666;2023-06-14T04:06:28;68214.81;;;9.27;100.00
36354;BME280;22383;51.114;13.666;2023-06-14T04:08:59;68226.72;;;9.38;100.00
36354;BME280;22383;51.114;13.666;2023-06-14T04:11:30;68242.19;;;9.48;100.00
36354;BME280;22383;51.114;13.666;2023-06-14T04:13:58;68248.63;;;9.56;100.00
36354;BME280;22383;51.114;13.666;2023-06-14T04:16:26;68262.59;;;9.66;100.00
36354;BME280;22383;51.114;13.666;2023-06-14T04:18:54;68270.16;;;9.75;100.00
36354;BME280;22383;51.114;13.666;2023-06-14T04:21:22;68288.09;;;9.89;100.00
36354;BME280;22383;51.114;13.666;2023-06-14T04:23:52;68300.16;;;10.02;100.00
36354;BME280;22383;51.114;13.666;2023-06-14T04:26:25;68313.22;;;10.14;100.00
36354;BME280;22383;51.114;13.666;2023-06-14T04:28:57;68328.69;;;10.31;100.00
36354;BME280;22383;51.114;13.666;2023-06-14T04:31:31;68338.16;;;10.37;100.00
36354;BME280;22383;51.114;13.666;2023-06-14T04:34:07;68349.69;;;10.50;100.00
36354;BME280;22383;51.114;13.666;2023-06-14T04:36:35;68364.25;;;10.60;100.00
36354;BME280;22383;51.114;13.666;2023-06-14T04:39:04;68390.34;;;10.84;100.00
36354;BME280;22383;51.114;13.666;2023-06-14T04:41:31;68398.28;;;10.91;100.00
36354;BME280;22383;51.114;13.666;2023-06-14T04:44:00;68424.38;;;11.15;100.00
36354;BME280;22383;51.114;13.666;2023-06-14T04:46:32;68454.97;;;11.43;100.00
36354;BME280;22383;51.114;13.666;2023-06-14T04:49:00;68462.38;;;11.49;100.00
36354;BME280;22383;51.114;13.666;2023-06-14T04:51:29;68460.47;;;11.45;100.00
36354;BME280;22383;51.114;13.666;2023-06-14T04:53:57;68477.50;;;11.61;100.00
36354;BME280;22383;51.114;13.666;2023-06-14T04:56:26;68499.44;;;11.85;100.00
36354;BME280;22383;51.114;13.666;2023-06-14T04:58:53;68534.25;;;12.19;100.00
36354;BME280;22383;51.114;13.666;2023-06-14T05:01:20;68554.91;;;12.33;100.00
36354;BME280;22383;51.114;13.666;2023-06-14T05:03:51;68562.66;;;12.45;100.00
36354;BME280;22383;51.114;13.666;2023-06-14T05:06:19;68590.09;;;12.65;100.00
36354;BME280;22383;51.114;13.666;2023-06-14T05:08:46;68601.06;;;12.77;100.00
36354;BME280;22383;51.114;13.666;2023-06-14T05:11:13;68617.16;;;12.94;100.00
36354;BME280;22383;51.114;13.666;2023-06-14T05:13:41;68640.84;;;13.13;100.00
36354;BME280;22383;51.114;13.666;2023-06-14T05:16:10;68661.88;;;13.32;100.00
36354;BME280;22383;51.114;13.666;2023-06-14T05:18:41;68692.38;;;13.57;100.00
36354;BME280;22383;51.114;13.666;2023-06-14T05:21:08;68715.84;;;13.81;100.00
36354;BME280;22383;51.114;13.666;2023-06-14T05:23:35;68711.31;;;13.77;100.00
36354;BME280;22383;51.114;13.666;2023-06-14T05:26:02;68717.94;;;13.80;100.00
36354;BME280;22383;51.114;13.666;2023-06-14T05:28:30;68731.97;;;13.98;100.00
36354;BME280;22383;51.114;13.666;2023-06-14T05:30:57;68727.78;;;13.92;100.00
36354;BME280;22383;51.114;13.666;2023-06-14T05:33:25;68700.50;;;13.67;100.00
36354;BME280;22383;51.114;13.666;2023-06-14T05:35:52;68665.09;;;13.33;100.00
36354;BME280;22383;51.114;13.666;2023-06-14T05:38:19;68634.22;;;13.02;100.00
36354;BME280;22383;51.114;13.666;2023-06-14T05:40:46;68593.69;;;12.71;100.00
36354;BME280;22383;51.114;13.666;2023-06-14T05:43:13;68585.75;;;12.63;100.00
36354;BME280;22383;51.114;13.666;2023-06-14T05:45:40;68587.84;;;12.63;100.00
36354;BME280;22383;51.114;13.666;2023-06-14T05:48:07;68595.59;;;12.67;100.00
36354;BME280;22383;51.114;13.666;2023-06-14T05:50:34;68589.53;;;12.64;100.00
36354;BME280;22383;51.114;13.666;2023-06-14T05:53:01;68591.63;;;12.71;100.00
36354;BME280;22383;51.114;13.666;2023-06-14T05:55:28;68643.66;;;13.16;100.00
36354;BME280;22383;51.114;13.666;2023-06-14T05:57:55;68717.94;;;13.80;100.00
36354;BME280;22383;51.114;13.666;2023-06-14T06:00:22;68783.91;;;14.40;100.00
36354;BME280;22383;51.114;13.666;2023-06-14T06:02:50;68815.19;;;14.68;100.00
36354;BME280;22383;51.114;13.666;2023-06-14T06:05:22;68840.38;;;14.93;100.00
36354;BME280;22383;51.114;13.666;2023-06-14T06:07:49;68873.78;;;15.21;100.00
36354;BME280;22383;51.114;13.666;2023-06-14T06:10:16;68888.75;;;15.37;100.00
36354;BME280;22383;51.114;13.666;2023-06-14T06:12:43;68900.13;;;15.47;100.00
36354;BME280;22383;51.114;13.666;2023-06-14T06:15:10;68926.31;;;15.71;100.00
36354;BME280;22383;51.114;13.666;2023-06-14T06:17:43;68939.81;;;15.81;100.00
36354;BME280;22383;51.114;13.666;2023-06-14T06:20:22;68956.69;;;16.01;100.00
36354;BME280;22383;51.114;13.666;2023-06-14T06:22:56;68976.59;;;16.19;100.00
36354;BME280;22383;51.114;13.666;2023-06-14T06:25:23;69003.78;;;16.41;100.00
36354;BME280;22383;51.114;13.666;2023-06-14T06:27:53;69051.63;;;16.84;100.00
36354;BME280;22383;51.114;13.666;2023-06-14T06:30:20;69065.47;;;16.99;100.00
36354;BME280;22383;51.114;13.666;2023-06-14T06:32:47;69058.63;;;16.93;100.00
36354;BME280;22383;51.114;13.666;2023-06-14T06:35:14;69058.63;;;16.93;100.00
36354;BME280;22383;51.114;13.666;2023-06-14T06:37:45;69075.72;;;17.08;100.00
36354;BME280;22383;51.114;13.666;2023-06-14T06:40:12;69092.41;;;17.26;100.00
36354;BME280;22383;51.114;13.666;2023-06-14T06:42:41;69076.88;;;17.09;100.00
36354;BME280;22383;51.114;13.666;2023-06-14T06:45:11;69050.09;;;16.85;100.00
36354;BME280;22383;51.114;13.666;2023-06-14T06:47:38;69065.28;;;16.96;100.00
36354;BME280;22383;51.114;13.666;2023-06-14T06:50:06;69056.91;;;16.91;100.00
36354;BME280;22383;51.114;13.666;2023-06-14T06:52:37;69071.75;;;17.05;100.00
36354;BME280;22383;51.114;13.666;2023-06-14T06:55:04;69093.59;;;17.19;100.00
36354;BME280;22383;51.114;13.666;2023-06-14T06:57:31;69122.44;;;17.50;100.00
36354;BME280;22383;51.114;13.666;2023-06-14T06:59:58;69152.47;;;17.75;100.00
36354;BME280;22383;51.114;13.666;2023-06-14T07:02:25;69149.97;;;17.77;100.00
36354;BME280;22383;51.114;13.666;2023-06-14T07:04:53;69178.31;;;18.01;100.00
36354;BME280;22383;51.114;13.666;2023-06-14T07:07:20;69196.78;;;18.12;100.00
36354;BME280;22383;51.114;13.666;2023-06-14T07:09:47;69198.50;;;18.14;100.00
36354;BME280;22383;51.114;13.666;2023-06-14T07:12:14;69169.75;;;17.93;100.00
36354;BME280;22383;51.114;13.666;2023-06-14T07:14:42;69211.78;;;18.28;100.00
36354;BME280;22383;51.114;13.666;2023-06-14T07:17:09;69245.59;;;18.61;100.00
36354;BME280;22383;51.114;13.666;2023-06-14T07:19:37;69236.88;;;18.51;100.00
36354;BME280;22383;51.114;13.666;2023-06-14T07:22:07;69255.84;;;18.70;100.00
36354;BME280;22383;51.114;13.666;2023-06-14T07:24:34;69249.19;;;18.67;100.00
36354;BME280;22383;51.114;13.666;2023-06-14T07:27:03;69207.06;;;18.22;100.00
36354;BME280;22383;51.114;13.666;2023-06-14T07:29:31;69237.44;;;18.51;100.00
36354;BME280;22383;51.114;13.666;2023-06-14T07:31:58;69244.69;;;18.56;100.00
36354;BME280;22383;51.114;13.666;2023-06-14T07:34:24;69223.19;;;18.39;100.00
36354;BME280;22383;51.114;13.666;2023-06-14T07:36:52;69179.69;;;17.97;100.00
36354;BME280;22383;51.114;13.666;2023-06-14T07:39:21;69152.63;;;17.77;100.00
36354;BME280;22383;51.114;13.666;2023-06-14T07:41:48;69158.53;;;17.85;100.00
36354;BME280;22383;51.114;13.666;2023-06-14T07:44:16;69201.69;;;18.22;100.00
36354;BME280;22383;51.114;13.666;2023-06-14T07:46:43;69257.97;;;18.70;100.00
36354;BME280;22383;51.114;13.666;2023-06-14T07:49:12;69251.88;;;18.67;100.00
36354;BME280;22383;51.114;13.666;2023-06-14T07:51:40;69263.84;;;18.78;100.00
36354;BME280;22383;51.114;13.666;2023-06-14T07:54:07;69252.09;;;18.62;100.00
36354;BME280;22383;51.114;13.666;2023-06-14T07:56:38;69227.41;;;18.38;97.78
36354;BME280;22383;51.114;13.666;2023-06-14T07:59:07;69223.38;;;18.41;97.25
36354;BME280;22383;51.114;13.666;2023-06-14T08:01:34;69188.59;;;18.10;97.17
36354;BME280;22383;51.114;13.666;2023-06-14T08:04:02;69221.31;;;18.35;99.42
36354;BME280;22383;51.114;13.666;2023-06-14T08:06:30;69227.16;;;18.42;95.58
36354;BME280;22383;51.114;13.666;2023-06-14T08:08:58;69216.16;;;18.30;97.24
36354;BME280;22383;51.114;13.666;2023-06-14T08:11:26;69222.22;;;18.40;98.66
36354;BME280;22383;51.114;13.666;2023-06-14T08:14:03;69240.28;;;18.54;98.13
36354;BME280;22383;51.114;13.666;2023-06-14T08:16:30;69221.09;;;18.39;97.73
36354;BME280;22383;51.114;13.666;2023-06-14T08:18:58;69224.91;;;18.40;100.00
36354;BME280;22383;51.114;13.666;2023-06-14T08:21:25;69173.59;;;17.94;94.99
36354;BME280;22383;51.114;13.666;2023-06-14T08:23:57;69215.19;;;18.31;95.59
36354;BME280;22383;51.114;13.666;2023-06-14T08:26:24;69228.88;;;18.44;98.33
36354;BME280;22383;51.114;13.666;2023-06-14T08:28:57;69227.56;;;18.40;94.53
36354;BME280;22383;51.114;13.666;2023-06-14T08:31:28;69222.06;;;18.38;95.68
36354;BME280;22383;51.114;13.666;2023-06-14T08:33:55;69239.16;;;18.53;97.99
36354;BME280;22383;51.114;13.666;2023-06-14T08:36:28;69205.09;;;18.25;93.99
36354;BME280;22383;51.114;13.666;2023-06-14T08:39:04;69199.06;;;18.14;91.09
36354;BME280;22383;51.114;13.666;2023-06-14T08:41:31;69202.66;;;18.20;94.31
36354;BME280;22383;51.114;13.666;2023-06-14T08:43:59;69239.72;;;18.54;96.52
36354;BME280;22383;51.114;13.666;2023-06-14T08:46:26;69242.00;;;18.56;94.91
36354;BME280;22383;51.114;13.666;2023-06-14T08:48:59;69257.97;;;18.70;98.19
36354;BME280;22383;51.114;13.666;2023-06-14T08:51:28;69279.66;;;18.89;94.25
36354;BME280;22383;51.114;13.666;2023-06-14T09:05:02;69243.72;;;18.57;91.47
36354;BME280;22383;51.114;13.666;2023-06-14T09:07:34;69246.56;;;18.60;93.55
36354;BME280;22383;51.114;13.666;2023-06-14T09:10:10;69239.16;;;18.53;92.13
36354;BME280;22383;51.114;13.666;2023-06-14T09:12:40;69253.81;;;18.64;92.38
36354;BME280;22383;51.114;13.666;2023-06-14T09:15:11;69235.75;;;18.50;92.62
36354;BME280;22383;51.114;13.666;2023-06-14T09:17:47;69227.00;;;18.40;93.58
36354;BME280;22383;51.114;13.666;2023-06-14T09:20:32;69208.38;;;18.25;97.41
36354;BME280;22383;51.114;13.666;2023-06-14T09:23:00;69201.53;;;18.19;96.86
36354;BME280;22383;51.114;13.666;2023-06-14T09:25:45;69197.72;;;18.18;94.90
36354;BME280;22383;51.114;13.666;2023-06-14T09:28:13;69217.09;;;18.36;98.70
36354;BME280;22383;51.114;13.666;2023-06-14T09:31:04;69225.09;;;18.43;95.11
36354;BME280;22383;51.114;13.666;2023-06-14T09:33:32;69187.09;;;18.04;94.92
36354;BME280;22383;51.114;13.666;2023-06-14T09:36:01;69184.59;;;18.06;100.00
36354;BME280;22383;51.114;13.666;2023-06-14T09:38:28;69197.88;;;18.21;99.16
36354;BME280;22383;51.114;13.666;2023-06-14T09:40:58;69207.63;;;18.22;100.00
36354;BME280;22383;51.114;13.666;2023-06-14T09:43:28;69222.47;;;18.36;94.00
36354;BME280;22383;51.114;13.666;2023-06-14T09:45:55;69235.00;;;18.47;97.75
36354;BME280;22383;51.114;13.666;2023-06-14T09:48:22;69235.34;;;18.52;97.19
36354;BME280;22383;51.114;13.666;2023-06-14T09:50:50;69242.56;;;18.56;100.00
36354;BME280;22383;51.114;13.666;2023-06-14T09:53:20;69242.00;;;18.56;96.86
36354;BME280;22383;51.114;13.666;2023-06-14T09:55:48;69263.84;;;18.78;98.38
36354;BME280;22383;51.114;13.666;2023-06-14T09:58:16;69280.25;;;18.90;95.66
36354;BME280;22383;51.114;13.666;2023-06-14T10:00:43;69293.34;;;19.02;96.49
36354;BME280;22383;51.114;13.666;2023-06-14T10:03:12;69257.00;;;18.71;94.50
36354;BME280;22383;51.114;13.666;2023-06-14T10:05:45;69282.53;;;18.92;92.94
36354;BME280;22383;51.114;13.666;2023-06-14T10:08:16;69258.16;;;18.73;92.19
36354;BME280;22383;51.114;13.666;2023-06-14T10:10:44;69280.97;;;18.93;96.78
36354;BME280;22383;51.114;13.666;2023-06-14T10:13:12;69336.16;;;19.40;98.85
36354;BME280;22383;51.114;13.666;2023-06-14T10:15:42;69398.56;;;19.99;95.39
36354;BME280;22383;51.114;13.666;2023-06-14T10:18:24;69396.09;;;19.94;85.49
36354;BME280;22383;51.114;13.666;2023-06-14T10:21:01;69419.69;;;20.18;93.53
36354;BME280;22383;51.114;13.666;2023-06-14T10:23:32;69448.22;;;20.44;94.26
36354;BME280;22383;51.114;13.666;2023-06-14T10:26:02;69458.50;;;20.53;84.93
36354;BME280;22383;51.114;13.666;2023-06-14T10:28:29;69450.91;;;20.44;86.30
36354;BME280;22383;51.114;13.666;2023-06-14T10:31:08;69427.69;;;20.25;83.76
36354;BME280;22383;51.114;13.666;2023-06-14T10:33:36;69372.88;;;19.76;87.72
36354;BME280;22383;51.114;13.666;2023-06-14T10:36:10;69362.56;;;19.67;87.07
36354;BME280;22383;51.114;13.666;2023-06-14T10:38:37;69382.97;;;19.82;88.48
36354;BME280;22383;51.114;13.666;2023-06-14T10:41:05;69420.25;;;20.18;85.76
36354;BME280;22383;51.114;13.666;2023-06-14T10:43:32;69448.06;;;20.41;84.70
36354;BME280;22383;51.114;13.666;2023-06-14T10:46:15;69464.22;;;20.58;82.19
36354;BME280;22383;51.114;13.666;2023-06-14T10:48:44;69476.81;;;20.69;85.75
36354;BME280;22383;51.114;13.666;2023-06-14T10:51:21;69473.38;;;20.66;82.43
36354;BME280;22383;51.114;13.666;2023-06-14T10:53:48;69455.09;;;20.50;83.41
36354;BME280;22383;51.114;13.666;2023-06-14T10:56:30;69451.66;;;20.47;82.33
36354;BME280;22383;51.114;13.666;2023-06-14T10:58:59;69470.34;;;20.61;83.25
36354;BME280;22383;51.114;13.666;2023-06-14T11:01:35;69477.94;;;20.70;87.99
36354;BME280;22383;51.114;13.666;2023-06-14T11:04:07;69454.75;;;20.45;90.27
36354;BME280;22383;51.114;13.666;2023-06-14T11:12:01;69377.25;;;19.77;89.77
36354;BME280;22383;51.114;13.666;2023-06-14T11:14:31;69388.69;;;19.88;93.58
36354;BME280;22383;51.114;13.666;2023-06-14T11:16:58;69360.84;;;19.65;95.32
36354;BME280;22383;51.114;13.666;2023-06-14T11:19:25;69301.53;;;19.12;97.08
36354;BME280;22383;51.114;13.666;2023-06-14T11:21:58;69272.28;;;18.83;96.94
36354;BME280;22383;51.114;13.666;2023-06-14T11:24:26;69267.50;;;18.76;98.09
36354;BME280;22383;51.114;13.666;2023-06-14T11:34:55;69185.97;;;18.03;100.00
36354;BME280;22383;51.114;13.666;2023-06-14T11:37:25;69188.59;;;18.10;100.00
36354;BME280;22383;51.114;13.666;2023-06-14T11:40:00;69207.00;;;18.29;100.00
36354;BME280;22383;51.114;13.666;2023-06-14T11:42:27;69223.94;;;18.42;100.00
36354;BME280;22383;51.114;13.666;2023-06-14T11:45:21;69226.22;;;18.44;100.00
36354;BME280;22383;51.114;13.666;2023-06-14T11:47:49;69247.31;;;18.63;100.00
36354;BME280;22383;51.114;13.666;2023-06-14T11:50:16;69253.81;;;18.64;100.00
36354;BME280;22383;51.114;13.666;2023-06-14T11:52:44;69282.53;;;18.92;100.00
36354;BME280;22383;51.114;13.666;2023-06-14T11:55:11;69284.06;;;18.91;100.00
36354;BME280;22383;51.114;13.666;2023-06-14T11:57:39;69281.78;;;18.89;100.00
36354;BME280;22383;51.114;13.666;2023-06-14T12:00:34;69269.38;;;18.80;100.00
36354;BME280;22383;51.114;13.666;2023-06-14T12:03:04;69252.28;;;18.65;100.00
36354;BME280;22383;51.114;13.666;2023-06-14T12:05:35;69268.06;;;18.77;100.00
36354;BME280;22383;51.114;13.666;2023-06-14T12:08:06;69272.84;;;18.83;100.00
36354;BME280;22383;51.114;13.666;2023-06-14T12:10:41;69336.75;;;19.41;100.00
36354;BME280;22383;51.114;13.666;2023-06-14T12:13:11;69393.25;;;19.92;100.00
36354;BME280;22383;51.114;13.666;2023-06-14T12:15:42;69416.09;;;20.12;99.96
36354;BME280;22383;51.114;13.666;2023-06-14T12:18:09;69419.09;;;20.17;98.16
36354;BME280;22383;51.114;13.666;2023-06-14T12:20:40;69371.16;;;19.74;100.00
36354;BME280;22383;51.114;13.666;2023-06-14T12:23:07;69328.34;;;19.36;100.00
36354;BME280;22383;51.114;13.666;2023-06-14T12:33:42;69241.44;;;18.55;100.00
36354;BME280;22383;51.114;13.666;2023-06-14T12:44:17;69229.63;;;18.47;100.00
36354;BME280;22383;51.114;13.666;2023-06-14T12:46:44;69225.66;;;18.43;100.00
36354;BME280;22383;51.114;13.666;2023-06-14T12:53:11;69260.09;;;18.69;100.00
36354;BME280;22383;51.114;13.666;2023-06-14T13:03:38;69390.16;;;19.94;100.00
36354;BME280;22383;51.114;13.666;2023-06-14T13:13:59;69489.78;;;20.78;95.65
36354;BME280;22383;51.114;13.666;2023-06-14T13:16:31;69510.50;;;21.00;97.78
36354;BME280;22383;51.114;13.666;2023-06-14T13:19:02;69429.97;;;20.27;100.00
36354;BME280;22383;51.114;13.666;2023-06-14T13:21:29;69403.53;;;20.01;100.00
36354;BME280;22383;51.114;13.666;2023-06-14T13:23:56;69327.38;;;19.37;100.00
36354;BME280;22383;51.114;13.666;2023-06-14T13:26:33;69283.28;;;18.95;100.00
36354;BME280;22383;51.114;13.666;2023-06-14T13:29:00;69254.16;;;18.69;100.00
36354;BME280;22383;51.114;13.666;2023-06-14T13:31:30;69242.75;;;18.59;100.00
36354;BME280;22383;51.114;13.666;2023-06-14T13:33:58;69289.38;;;18.98;100.00
36354;BME280;22383;51.114;13.666;2023-06-14T13:36:30;69353.84;;;19.56;100.00
36354;BME280;22383;51.114;13.666;2023-06-14T13:38:57;69415.09;;;20.14;100.00
36354;BME280;22383;51.114;13.666;2023-06-14T13:41:28;69448.22;;;20.44;100.00
36354;BME280;22383;51.114;13.666;2023-06-14T13:43:58;69488.41;;;20.82;100.00
36354;BME280;22383;51.114;13.666;2023-06-14T13:46:25;69509.75;;;20.96;99.11
36354;BME280;22383;51.114;13.666;2023-06-14T13:48:52;69442.09;;;20.40;96.41
36354;BME280;22383;51.114;13.666;2023-06-14T13:55:00;69362.56;;;19.67;100.00
36354;BME280;22383;51.114;13.666;2023-06-14T13:57:29;69369.44;;;19.73;100.00
36354;BME280;22383;51.114;13.666;2023-06-14T14:00:06;69347.56;;;19.51;100.00
36354;BME280;22383;51.114;13.666;2023-06-14T14:02:43;69343.00;;;19.46;100.00
36354;BME280;22383;51.114;13.666;2023-06-14T14:05:11;69335.44;;;19.37;100.00
36354;BME280;22383;51.114;13.666;2023-06-14T14:07:38;69354.03;;;19.59;100.00
36354;BME280;22383;51.114;13.666;2023-06-14T14:10:14;69422.53;;;20.20;100.00
36354;BME280;22383;51.114;13.666;2023-06-14T14:12:41;69431.84;;;20.31;96.39
36354;BME280;22383;51.114;13.666;2023-06-14T14:15:08;69443.31;;;20.34;97.20
36354;BME280;22383;51.114;13.666;2023-06-14T14:17:40;69436.09;;;20.30;97.20
36354;BME280;22383;51.114;13.666;2023-06-14T14:20:38;69433.97;;;20.31;98.12
36354;BME280;22383;51.114;13.666;2023-06-14T14:23:05;69468.06;;;20.59;96.02
36354;BME280;22383;51.114;13.666;2023-06-14T14:25:32;69521.78;;;21.07;95.34
36354;BME280;22383;51.114;13.666;2023-06-14T14:27:59;69559.84;;;21.46;91.58
36354;BME280;22383;51.114;13.666;2023-06-14T14:30:27;69581.97;;;21.64;87.09
36354;BME280;22383;51.114;13.666;2023-06-14T14:32:54;69582.38;;;21.62;88.97
36354;BME280;22383;51.114;13.666;2023-06-14T14:35:21;69591.50;;;21.70;91.03